sensor_id;sensor_type;location;lat;lon;timestamp;pressure;altitude;pressure_sealevel;temperature;humidity
53041;BME280;39326;42.650;23.248;2023-04-15T00:01:03;91806.06;;;6.21;77.66
53041;BME280;39326;42.650;23.248;2023-04-15T00:03:30;91811.00;;;6.26;77.01
53041;BME280;39326;42.650;23.248;2023-04-15T00:05:56;91820.34;;;5.99;80.83
53041;BME280;39326;42.650;23.248;2023-04-15T00:08:21;91819.94;;;5.93;79.41
53041;BME280;39326;42.650;23.248;2023-04-15T00:10:47;91825.72;;;6.20;78.08
53041;BME280;39326;42.650;23.248;2023-04-15T00:13:13;91818.94;;;6.26;77.79
53041;BME280;39326;42.650;23.248;2023-04-15T00:15:39;91821.63;;;6.41;76.59
53041;BME280;39326;42.650;23.248;2023-04-15T00:18:05;91814.09;;;6.46;76.04
53041;BME280;39326;42.650;23.248;2023-04-15T00:20:32;91813.31;;;6.49;75.66
53041;BME280;39326;42.650;23.248;2023-04-15T00:22:58;91814.50;;;6.55;75.69
53041;BME280;39326;42.650;23.248;2023-04-15T00:25:24;91811.88;;;6.59;75.62
53041;BME280;39326;42.650;23.248;2023-04-15T00:27:50;91813.78;;;6.69;76.23
53041;BME280;39326;42.650;23.248;2023-04-15T00:30:15;91822.91;;;6.75;75.86
53041;BME280;39326;42.650;23.248;2023-04-15T00:32:41;91814.53;;;6.66;76.17
53041;BME280;39326;42.650;23.248;2023-04-15T00:35:07;91818.72;;;6.64;76.72
53041;BME280;39326;42.650;23.248;2023-04-15T00:37:33;91808.47;;;6.62;76.34
53041;BME280;39326;42.650;23.248;2023-04-15T00:39:59;91808.09;;;6.67;76.43
53041;BME280;39326;42.650;23.248;2023-04-15T00:42:25;91805.81;;;6.62;76.93
53041;BME280;39326;42.650;23.248;2023-04-15T00:44:50;91801.63;;;6.54;76.53
53041;BME280;39326;42.650;23.248;2023-04-15T00:47:17;91801.25;;;6.55;75.85
53041;BME280;39326;42.650;23.248;2023-04-15T00:49:43;91797.13;;;6.58;75.23
53041;BME280;39326;42.650;23.248;2023-04-15T00:52:08;91802.06;;;6.63;74.79
53041;BME280;39326;42.650;23.248;2023-04-15T00:54:34;91794.09;;;6.56;74.68
53041;BME280;39326;42.650;23.248;2023-04-15T00:56:59;91799.03;;;6.65;74.00
53041;BME280;39326;42.650;23.248;2023-04-15T00:59:25;91798.25;;;6.68;73.92
53041;BME280;39326;42.650;23.248;2023-04-15T01:01:52;91810.38;;;6.79;72.98
53041;BME280;39326;42.650;23.248;2023-04-15T01:04:17;91811.53;;;6.82;73.77
53041;BME280;39326;42.650;23.248;2023-04-15T01:06:42;91828.94;;;6.76;74.42
53041;BME280;39326;42.650;23.248;2023-04-15T01:09:08;91801.56;;;6.36;75.86
53041;BME280;39326;42.650;23.248;2023-04-15T01:11:34;91817.50;;;6.47;75.05
53041;BME280;39326;42.650;23.248;2023-04-15T01:13:59;91828.47;;;6.45;74.43
53041;BME280;39326;42.650;23.248;2023-04-15T01:16:25;91827.34;;;6.50;73.37
53041;BME280;39326;42.650;23.248;2023-04-15T01:18:53;91826.97;;;6.55;72.87
53041;BME280;39326;42.650;23.248;2023-04-15T01:21:18;91824.66;;;6.43;73.88
53041;BME280;39326;42.650;23.248;2023-04-15T01:23:45;91822.78;;;6.47;73.07
53041;BME280;39326;42.650;23.248;2023-04-15T01:26:12;91820.13;;;6.47;73.13
53041;BME280;39326;42.650;23.248;2023-04-15T01:28:38;91815.63;;;6.51;72.84
53041;BME280;39326;42.650;23.248;2023-04-15T01:31:07;91822.03;;;6.46;72.85
53041;BME280;39326;42.650;23.248;2023-04-15T01:33:32;91821.63;;;6.37;72.87
53041;BME280;39326;42.650;23.248;2023-04-15T01:35:58;91821.25;;;6.39;72.74
53041;BME280;39326;42.650;23.248;2023-04-15T01:38:26;91820.09;;;6.36;72.65
53041;BME280;39326;42.650;23.248;2023-04-15T01:40:51;91820.09;;;6.32;73.09
53041;BME280;39326;42.650;23.248;2023-04-15T01:43:17;91813.66;;;6.30;73.70
53041;BME280;39326;42.650;23.248;2023-04-15T01:45:43;91826.13;;;6.26;73.82
53041;BME280;39326;42.650;23.248;2023-04-15T01:48:08;91828.72;;;6.15;74.05
53041;BME280;39326;42.650;23.248;2023-04-15T01:50:34;91825.28;;;6.04;74.82
53041;BME280;39326;42.650;23.248;2023-04-15T01:53:01;91833.84;;;5.80;75.30
53041;BME280;39326;42.650;23.248;2023-04-15T01:55:26;91822.41;;;5.61;75.66
53041;BME280;39326;42.650;23.248;2023-04-15T01:57:51;91832.22;;;5.61;75.65
53041;BME280;39326;42.650;23.248;2023-04-15T02:00:17;91832.97;;;5.58;75.76
53041;BME280;39326;42.650;23.248;2023-04-15T02:02:42;91834.81;;;5.54;76.02
53041;BME280;39326;42.650;23.248;2023-04-15T02:05:08;91838.97;;;5.51;75.95
53041;BME280;39326;42.650;23.248;2023-04-15T02:07:35;91842.47;;;5.62;75.42
53041;BME280;39326;42.650;23.248;2023-04-15T02:10:01;91837.50;;;5.57;75.33
53041;BME280;39326;42.650;23.248;2023-04-15T02:12:26;91831.88;;;5.62;75.79
53041;BME280;39326;42.650;23.248;2023-04-15T02:14:52;91823.56;;;5.67;74.58
53041;BME280;39326;42.650;23.248;2023-04-15T02:17:17;91824.75;;;5.70;74.73
53041;BME280;39326;42.650;23.248;2023-04-15T02:19:43;91830.44;;;5.79;73.74
53041;BME280;39326;42.650;23.248;2023-04-15T02:22:08;91821.00;;;5.78;73.91
53041;BME280;39326;42.650;23.248;2023-04-15T02:24:35;91814.97;;;5.81;73.50
53041;BME280;39326;42.650;23.248;2023-04-15T02:27:00;91823.28;;;5.87;73.52
53041;BME280;39326;42.650;23.248;2023-04-15T02:29:26;91817.66;;;5.88;73.82
53041;BME280;39326;42.650;23.248;2023-04-15T02:31:51;91822.53;;;5.83;74.01
53041;BME280;39326;42.650;23.248;2023-04-15T02:34:17;91831.56;;;5.74;74.47
53041;BME280;39326;42.650;23.248;2023-04-15T02:36:42;91832.28;;;5.71;74.62
53041;BME280;39326;42.650;23.248;2023-04-15T02:39:08;91834.53;;;5.62;74.98
53041;BME280;39326;42.650;23.248;2023-04-15T02:41:33;91841.22;;;5.49;75.22
53041;BME280;39326;42.650;23.248;2023-04-15T02:43:59;91828.00;;;5.49;75.37
53041;BME280;39326;42.650;23.248;2023-04-15T02:46:25;91837.78;;;5.41;75.15
53041;BME280;39326;42.650;23.248;2023-04-15T02:48:51;91830.59;;;5.38;75.61
53041;BME280;39326;42.650;23.248;2023-04-15T02:51:19;91835.16;;;5.45;75.10
53041;BME280;39326;42.650;23.248;2023-04-15T02:53:48;91834.06;;;5.49;75.09
53041;BME280;39326;42.650;23.248;2023-04-15T02:56:15;91831.34;;;5.42;75.22
53041;BME280;39326;42.650;23.248;2023-04-15T02:58:42;91833.19;;;5.35;75.36
53041;BME280;39326;42.650;23.248;2023-04-15T03:01:09;91840.03;;;5.39;75.20
53041;BME280;39326;42.650;23.248;2023-04-15T03:03:34;91838.50;;;5.38;75.96
53041;BME280;39326;42.650;23.248;2023-04-15T03:06:00;91841.50;;;5.33;75.80
53041;BME280;39326;42.650;23.248;2023-04-15T03:08:25;91851.97;;;5.19;76.48
53041;BME280;39326;42.650;23.248;2023-04-15T03:10:51;91842.44;;;5.07;77.10
53041;BME280;39326;42.650;23.248;2023-04-15T03:13:17;91843.16;;;5.04;76.79
53041;BME280;39326;42.650;23.248;2023-04-15T03:15:45;91848.47;;;5.08;76.79
53041;BME280;39326;42.650;23.248;2023-04-15T03:18:11;91845.84;;;5.08;76.87
53041;BME280;39326;42.650;23.248;2023-04-15T03:20:36;91845.78;;;5.04;76.55
53041;BME280;39326;42.650;23.248;2023-04-15T03:23:01;91845.31;;;4.91;76.88
53041;BME280;39326;42.650;23.248;2023-04-15T03:25:27;91847.94;;;4.91;77.39
53041;BME280;39326;42.650;23.248;2023-04-15T03:27:52;91853.28;;;4.99;76.82
53041;BME280;39326;42.650;23.248;2023-04-15T03:30:18;91847.94;;;4.91;77.06
53041;BME280;39326;42.650;23.248;2023-04-15T03:32:43;91854.72;;;4.89;77.30
53041;BME280;39326;42.650;23.248;2023-04-15T03:35:08;91855.16;;;4.94;77.67
53041;BME280;39326;42.650;23.248;2023-04-15T03:37:34;91860.06;;;4.96;77.75
53041;BME280;39326;42.650;23.248;2023-04-15T03:40:00;91859.63;;;4.90;78.19
53041;BME280;39326;42.650;23.248;2023-04-15T03:42:26;91870.56;;;4.89;78.24
53041;BME280;39326;42.650;23.248;2023-04-15T03:44:51;91874.31;;;4.84;78.12
53041;BME280;39326;42.650;23.248;2023-04-15T03:47:17;91873.91;;;4.82;78.08
53041;BME280;39326;42.650;23.248;2023-04-15T03:49:42;91878.03;;;4.80;78.22
53041;BME280;39326;42.650;23.248;2023-04-15T03:52:08;91887.00;;;4.72;78.39
53041;BME280;39326;42.650;23.248;2023-04-15T03:54:33;91879.84;;;4.72;78.15
53041;BME280;39326;42.650;23.248;2023-04-15T03:56:58;91882.81;;;4.67;78.15
53041;BME280;39326;42.650;23.248;2023-04-15T03:59:24;91880.00;;;4.49;79.64
53041;BME280;39326;42.650;23.248;2023-04-15T04:01:49;91880.06;;;4.56;78.57
53041;BME280;39326;42.650;23.248;2023-04-15T04:04:15;91888.75;;;4.57;78.74
53041;BME280;39326;42.650;23.248;2023-04-15T04:06:40;91897.06;;;4.59;78.53
53041;BME280;39326;42.650;23.248;2023-04-15T04:09:06;91904.59;;;4.60;79.02
53041;BME280;39326;42.650;23.248;2023-04-15T04:11:31;91905.41;;;4.64;78.83
53041;BME280;39326;42.650;23.248;2023-04-15T04:13:57;91895.59;;;4.61;78.79
53041;BME280;39326;42.650;23.248;2023-04-15T04:16:23;91891.47;;;4.64;79.30
53041;BME280;39326;42.650;23.248;2023-04-15T04:18:48;91894.66;;;4.84;79.15
53041;BME280;39326;42.650;23.248;2023-04-15T04:21:14;91896.69;;;4.98;79.04
53041;BME280;39326;42.650;23.248;2023-04-15T04:23:39;91893.34;;;5.01;78.98
53041;BME280;39326;42.650;23.248;2023-04-15T04:26:05;91894.09;;;5.05;78.91
53041;BME280;39326;42.650;23.248;2023-04-15T04:28:30;91890.38;;;5.06;78.85
53041;BME280;39326;42.650;23.248;2023-04-15T04:30:56;91889.25;;;5.10;78.86
53041;BME280;39326;42.650;23.248;2023-04-15T04:33:21;91899.88;;;5.17;78.88
53041;BME280;39326;42.650;23.248;2023-04-15T04:35:47;91893.94;;;5.24;78.62
53041;BME280;39326;42.650;23.248;2023-04-15T04:38:12;91894.31;;;5.30;78.80
53041;BME280;39326;42.650;23.248;2023-04-15T04:40:38;91892.84;;;5.32;78.88
53041;BME280;39326;42.650;23.248;2023-04-15T04:43:03;91899.34;;;5.42;78.97
53041;BME280;39326;42.650;23.248;2023-04-15T04:45:29;91891.78;;;5.40;79.54
53041;BME280;39326;42.650;23.248;2023-04-15T04:47:54;91899.00;;;5.47;80.46
53041;BME280;39326;42.650;23.248;2023-04-15T04:50:20;91901.00;;;5.61;79.78
53041;BME280;39326;42.650;23.248;2023-04-15T04:52:45;91898.00;;;5.66;80.48
53041;BME280;39326;42.650;23.248;2023-04-15T04:55:11;91909.81;;;5.75;80.32
53041;BME280;39326;42.650;23.248;2023-04-15T04:57:36;91913.66;;;5.89;79.70
53041;BME280;39326;42.650;23.248;2023-04-15T05:00:04;91906.56;;;6.03;78.78
53041;BME280;39326;42.650;23.248;2023-04-15T05:02:30;91913.47;;;6.19;77.73
53041;BME280;39326;42.650;23.248;2023-04-15T05:04:56;91919.94;;;6.25;77.52
53041;BME280;39326;42.650;23.248;2023-04-15T05:07:22;91924.53;;;6.42;77.16
53041;BME280;39326;42.650;23.248;2023-04-15T05:09:47;91928.72;;;6.47;76.62
53041;BME280;39326;42.650;23.248;2023-04-15T05:12:12;91942.63;;;6.29;77.36
53041;BME280;39326;42.650;23.248;2023-04-15T05:14:40;91946.81;;;6.34;76.67
53041;BME280;39326;42.650;23.248;2023-04-15T05:17:06;91949.88;;;6.40;76.51
53041;BME280;39326;42.650;23.248;2023-04-15T05:19:32;91953.91;;;6.16;77.00
53041;BME280;39326;42.650;23.248;2023-04-15T05:21:57;91947.47;;;6.17;76.77
53041;BME280;39326;42.650;23.248;2023-04-15T05:24:22;91948.66;;;6.19;77.03
53041;BME280;39326;42.650;23.248;2023-04-15T05:26:48;91944.56;;;6.36;76.21
53041;BME280;39326;42.650;23.248;2023-04-15T05:29:13;91951.47;;;6.51;75.43
53041;BME280;39326;42.650;23.248;2023-04-15T05:31:39;91938.22;;;6.55;75.00
53041;BME280;39326;42.650;23.248;2023-04-15T05:34:04;91937.91;;;6.67;74.80
53041;BME280;39326;42.650;23.248;2023-04-15T05:36:31;91945.53;;;6.79;74.78
53041;BME280;39326;42.650;23.248;2023-04-15T05:38:57;91948.59;;;6.85;74.68
53041;BME280;39326;42.650;23.248;2023-04-15T05:41:22;91944.81;;;6.93;73.94
53041;BME280;39326;42.650;23.248;2023-04-15T05:43:48;91950.53;;;7.06;73.91
53041;BME280;39326;42.650;23.248;2023-04-15T05:46:13;91955.06;;;6.88;74.40
53041;BME280;39326;42.650;23.248;2023-04-15T05:48:38;91957.00;;;7.08;73.89
53041;BME280;39326;42.650;23.248;2023-04-15T05:51:04;91954.00;;;7.14;73.43
53041;BME280;39326;42.650;23.248;2023-04-15T05:53:30;91944.94;;;7.39;72.95
53041;BME280;39326;42.650;23.248;2023-04-15T05:55:56;91946.47;;;7.55;72.56
53041;BME280;39326;42.650;23.248;2023-04-15T05:58:22;91955.19;;;7.59;72.93
53041;BME280;39326;42.650;23.248;2023-04-15T06:00:47;91953.66;;;7.69;71.75
53041;BME280;39326;42.650;23.248;2023-04-15T06:03:13;91957.84;;;7.80;70.54
53041;BME280;39326;42.650;23.248;2023-04-15T06:05:38;91953.69;;;8.08;70.83
53041;BME280;39326;42.650;23.248;2023-04-15T06:08:05;91960.09;;;8.28;69.39
53041;BME280;39326;42.650;23.248;2023-04-15T06:10:30;91960.47;;;8.34;69.04
53041;BME280;39326;42.650;23.248;2023-04-15T06:13:03;91959.69;;;8.47;66.96
53041;BME280;39326;42.650;23.248;2023-04-15T06:15:29;91958.16;;;8.54;63.37
53041;BME280;39326;42.650;23.248;2023-04-15T06:17:54;91971.41;;;8.71;62.19
53041;BME280;39326;42.650;23.248;2023-04-15T06:20:20;91973.69;;;8.66;64.92
53041;BME280;39326;42.650;23.248;2023-04-15T06:22:45;91984.75;;;8.46;68.15
53041;BME280;39326;42.650;23.248;2023-04-15T06:25:11;91987.78;;;8.24;69.20
53041;BME280;39326;42.650;23.248;2023-04-15T06:27:36;91985.13;;;8.34;68.48
53041;BME280;39326;42.650;23.248;2023-04-15T06:30:02;91991.22;;;8.45;67.56
53041;BME280;39326;42.650;23.248;2023-04-15T06:32:28;91994.94;;;8.69;67.13
53041;BME280;39326;42.650;23.248;2023-04-15T06:34:54;92000.59;;;8.89;66.17
53041;BME280;39326;42.650;23.248;2023-04-15T06:37:19;92012.34;;;8.99;65.83
53041;BME280;39326;42.650;23.248;2023-04-15T06:39:44;92006.63;;;9.08;65.33
53041;BME280;39326;42.650;23.248;2023-04-15T06:42:10;91999.00;;;9.06;65.94
53041;BME280;39326;42.650;23.248;2023-04-15T06:44:36;92007.38;;;9.05;65.05
53041;BME280;39326;42.650;23.248;2023-04-15T06:47:02;92000.41;;;9.32;64.82
53041;BME280;39326;42.650;23.248;2023-04-15T06:49:27;92005.72;;;9.36;62.89
53041;BME280;39326;42.650;23.248;2023-04-15T06:51:53;92013.78;;;9.21;59.92
53041;BME280;39326;42.650;23.248;2023-04-15T06:54:18;92008.09;;;9.16;57.10
53041;BME280;39326;42.650;23.248;2023-04-15T06:56:44;92010.72;;;9.26;57.38
53041;BME280;39326;42.650;23.248;2023-04-15T06:59:09;92000.72;;;9.45;57.01
53041;BME280;39326;42.650;23.248;2023-04-15T07:01:35;92006.31;;;9.68;55.91
53041;BME280;39326;42.650;23.248;2023-04-15T07:04:00;92017.25;;;9.81;55.34
53041;BME280;39326;42.650;23.248;2023-04-15T07:06:26;92012.69;;;9.81;54.76
53041;BME280;39326;42.650;23.248;2023-04-15T07:08:52;92016.69;;;10.11;54.80
53041;BME280;39326;42.650;23.248;2023-04-15T07:11:19;92014.19;;;9.86;53.14
53041;BME280;39326;42.650;23.248;2023-04-15T07:13:45;92015.28;;;9.92;52.48
53041;BME280;39326;42.650;23.248;2023-04-15T07:16:10;92012.63;;;9.92;53.63
53041;BME280;39326;42.650;23.248;2023-04-15T07:18:36;92009.47;;;10.12;51.77
53041;BME280;39326;42.650;23.248;2023-04-15T07:21:01;92006.03;;;10.11;53.24
53041;BME280;39326;42.650;23.248;2023-04-15T07:23:27;92020.34;;;10.31;52.09
53041;BME280;39326;42.650;23.248;2023-04-15T07:25:52;92024.34;;;10.54;52.21
53041;BME280;39326;42.650;23.248;2023-04-15T07:28:18;92019.94;;;10.78;50.86
53041;BME280;39326;42.650;23.248;2023-04-15T07:30:43;92011.88;;;10.85;50.23
53041;BME280;39326;42.650;23.248;2023-04-15T07:33:08;92020.94;;;10.91;50.66
53041;BME280;39326;42.650;23.248;2023-04-15T07:35:34;92022.50;;;11.23;51.25
53041;BME280;39326;42.650;23.248;2023-04-15T07:37:59;92020.25;;;11.21;50.68
53041;BME280;39326;42.650;23.248;2023-04-15T07:40:25;92005.69;;;11.26;49.83
53041;BME280;39326;42.650;23.248;2023-04-15T07:42:50;92010.41;;;11.49;49.17
53041;BME280;39326;42.650;23.248;2023-04-15T07:45:16;92010.19;;;11.90;49.40
53041;BME280;39326;42.650;23.248;2023-04-15T07:47:42;92024.13;;;12.05;48.41
53041;BME280;39326;42.650;23.248;2023-04-15T07:50:08;92018.00;;;12.31;48.24
53041;BME280;39326;42.650;23.248;2023-04-15T07:52:35;92017.47;;;12.40;47.84
53041;BME280;39326;42.650;23.248;2023-04-15T07:55:08;92031.72;;;12.33;47.10
53041;BME280;39326;42.650;23.248;2023-04-15T07:57:34;92035.91;;;12.34;48.14
53041;BME280;39326;42.650;23.248;2023-04-15T08:00:00;92033.66;;;12.56;50.11
53041;BME280;39326;42.650;23.248;2023-04-15T08:02:27;92028.41;;;12.49;50.07
53041;BME280;39326;42.650;23.248;2023-04-15T08:04:53;92030.09;;;12.63;50.33
53041;BME280;39326;42.650;23.248;2023-04-15T08:07:18;92034.47;;;13.00;49.43
53041;BME280;39326;42.650;23.248;2023-04-15T08:09:44;92034.31;;;13.47;47.99
53041;BME280;39326;42.650;23.248;2023-04-15T08:12:10;92034.25;;;13.70;46.82
53041;BME280;39326;42.650;23.248;2023-04-15T08:14:38;92038.69;;;13.77;46.26
53041;BME280;39326;42.650;23.248;2023-04-15T08:17:03;92036.03;;;14.13;45.59
53041;BME280;39326;42.650;23.248;2023-04-15T08:19:30;92029.84;;;14.16;44.88
53041;BME280;39326;42.650;23.248;2023-04-15T08:21:55;92026.47;;;13.96;45.25
53041;BME280;39326;42.650;23.248;2023-04-15T08:24:21;92037.13;;;14.16;45.12
53041;BME280;39326;42.650;23.248;2023-04-15T08:26:47;92038.78;;;13.93;44.29
53041;BME280;39326;42.650;23.248;2023-04-15T08:29:12;92029.03;;;13.63;44.18
53041;BME280;39326;42.650;23.248;2023-04-15T08:31:38;92031.44;;;13.57;44.83
53041;BME280;39326;42.650;23.248;2023-04-15T08:34:03;92042.72;;;13.49;45.04
53041;BME280;39326;42.650;23.248;2023-04-15T08:36:29;92040.72;;;13.53;44.78
53041;BME280;39326;42.650;23.248;2023-04-15T08:38:55;92027.72;;;13.51;44.69
53041;BME280;39326;42.650;23.248;2023-04-15T08:41:22;92030.22;;;13.78;42.72
53041;BME280;39326;42.650;23.248;2023-04-15T08:44:00;92023.88;;;14.08;40.73
53041;BME280;39326;42.650;23.248;2023-04-15T08:46:29;92032.09;;;13.81;40.04
53041;BME280;39326;42.650;23.248;2023-04-15T08:48:57;92029.94;;;14.13;40.08
53041;BME280;39326;42.650;23.248;2023-04-15T08:51:23;92017.00;;;14.07;40.11
53041;BME280;39326;42.650;23.248;2023-04-15T08:53:49;92022.09;;;14.02;39.10
53041;BME280;39326;42.650;23.248;2023-04-15T08:56:17;92025.84;;;13.88;38.29
53041;BME280;39326;42.650;23.248;2023-04-15T08:58:43;92020.38;;;14.11;39.93
53041;BME280;39326;42.650;23.248;2023-04-15T09:01:11;92021.06;;;14.32;39.82
53041;BME280;39326;42.650;23.248;2023-04-15T09:03:37;92014.31;;;14.07;39.56
53041;BME280;39326;42.650;23.248;2023-04-15T09:06:04;92014.75;;;14.06;38.44
53041;BME280;39326;42.650;23.248;2023-04-15T09:08:30;92007.41;;;14.43;40.04
53041;BME280;39326;42.650;23.248;2023-04-15T09:10:55;92013.78;;;14.49;37.58
53041;BME280;39326;42.650;23.248;2023-04-15T09:13:21;92000.09;;;14.27;35.22
53041;BME280;39326;42.650;23.248;2023-04-15T09:15:47;92008.72;;;14.34;35.66
53041;BME280;39326;42.650;23.248;2023-04-15T09:18:13;91998.66;;;14.38;35.42
53041;BME280;39326;42.650;23.248;2023-04-15T09:20:52;91996.47;;;14.66;35.64
53041;BME280;39326;42.650;23.248;2023-04-15T09:23:17;91992.38;;;14.61;34.20
53041;BME280;39326;42.650;23.248;2023-04-15T09:25:43;91991.41;;;14.84;33.67
53041;BME280;39326;42.650;23.248;2023-04-15T09:28:09;91998.38;;;14.82;35.07
53041;BME280;39326;42.650;23.248;2023-04-15T09:30:35;92001.56;;;14.77;35.24
53041;BME280;39326;42.650;23.248;2023-04-15T09:33:02;91999.81;;;14.70;34.57
53041;BME280;39326;42.650;23.248;2023-04-15T09:35:33;92005.72;;;14.49;36.13
53041;BME280;39326;42.650;23.248;2023-04-15T09:38:06;92010.03;;;14.91;35.64
53041;BME280;39326;42.650;23.248;2023-04-15T09:40:36;92005.38;;;15.08;35.27
53041;BME280;39326;42.650;23.248;2023-04-15T09:43:03;92012.97;;;14.81;34.22
53041;BME280;39326;42.650;23.248;2023-04-15T09:45:31;92018.19;;;15.17;32.40
53041;BME280;39326;42.650;23.248;2023-04-15T09:47:57;92009.34;;;15.33;31.76
53041;BME280;39326;42.650;23.248;2023-04-15T09:50:26;92022.81;;;15.45;31.36
53041;BME280;39326;42.650;23.248;2023-04-15T09:52:54;92018.72;;;15.41;31.48
53041;BME280;39326;42.650;23.248;2023-04-15T09:55:20;92007.34;;;14.91;31.34
53041;BME280;39326;42.650;23.248;2023-04-15T09:57:45;92000.75;;;14.80;32.22
53041;BME280;39326;42.650;23.248;2023-04-15T10:00:13;91993.97;;;14.43;32.59
53041;BME280;39326;42.650;23.248;2023-04-15T10:02:40;92005.03;;;14.61;31.99
53041;BME280;39326;42.650;23.248;2023-04-15T10:05:13;91999.53;;;14.35;33.04
53041;BME280;39326;42.650;23.248;2023-04-15T10:07:39;92003.44;;;14.31;34.19
53041;BME280;39326;42.650;23.248;2023-04-15T10:10:07;92004.97;;;14.48;33.33
53041;BME280;39326;42.650;23.248;2023-04-15T10:12:36;92004.63;;;14.46;34.36
53041;BME280;39326;42.650;23.248;2023-04-15T10:15:03;91995.63;;;14.53;33.57
53041;BME280;39326;42.650;23.248;2023-04-15T10:17:31;92010.88;;;14.72;33.49
53041;BME280;39326;42.650;23.248;2023-04-15T10:20:02;91994.75;;;14.88;33.25
53041;BME280;39326;42.650;23.248;2023-04-15T10:22:29;91987.06;;;14.74;33.33
53041;BME280;39326;42.650;23.248;2023-04-15T10:24:57;91985.69;;;15.28;33.10
53041;BME280;39326;42.650;23.248;2023-04-15T10:27:24;91994.72;;;15.34;34.37
53041;BME280;39326;42.650;23.248;2023-04-15T10:29:50;91974.66;;;15.51;34.28
53041;BME280;39326;42.650;23.248;2023-04-15T10:32:18;91980.38;;;15.66;33.13
53041;BME280;39326;42.650;23.248;2023-04-15T10:34:45;91961.25;;;15.64;33.17
53041;BME280;39326;42.650;23.248;2023-04-15T10:37:11;91965.44;;;15.78;34.30
53041;BME280;39326;42.650;23.248;2023-04-15T10:39:39;91966.34;;;16.13;34.33
53041;BME280;39326;42.650;23.248;2023-04-15T10:42:11;91988.50;;;16.04;32.97
53041;BME280;39326;42.650;23.248;2023-04-15T10:44:42;91981.09;;;16.08;32.96
53041;BME280;39326;42.650;23.248;2023-04-15T10:47:11;91984.66;;;16.05;32.64
53041;BME280;39326;42.650;23.248;2023-04-15T10:49:48;91970.06;;;15.90;32.79
53041;BME280;39326;42.650;23.248;2023-04-15T10:52:16;91968.69;;;15.98;32.58
53041;BME280;39326;42.650;23.248;2023-04-15T10:54:42;91971.56;;;15.91;33.15
53041;BME280;39326;42.650;23.248;2023-04-15T10:57:14;91977.59;;;15.82;33.98
53041;BME280;39326;42.650;23.248;2023-04-15T11:02:45;91954.28;;;16.17;32.89
53041;BME280;39326;42.650;23.248;2023-04-15T11:05:15;91967.78;;;16.52;32.55
53041;BME280;39326;42.650;23.248;2023-04-15T11:07:48;91974.19;;;16.33;32.97
53041;BME280;39326;42.650;23.248;2023-04-15T11:12:55;91990.44;;;16.16;33.59
53041;BME280;39326;42.650;23.248;2023-04-15T11:18:08;91977.41;;;16.28;32.05
53041;BME280;39326;42.650;23.248;2023-04-15T11:20:33;91985.19;;;16.00;31.15
53041;BME280;39326;42.650;23.248;2023-04-15T11:22:59;91980.59;;;15.59;30.95
53041;BME280;39326;42.650;23.248;2023-04-15T11:25:29;91978.22;;;15.73;32.35
53041;BME280;39326;42.650;23.248;2023-04-15T11:27:55;91979.47;;;15.98;32.59
53041;BME280;39326;42.650;23.248;2023-04-15T11:30:23;91981.38;;;16.23;32.82
53041;BME280;39326;42.650;23.248;2023-04-15T11:32:54;91976.94;;;16.54;32.38
53041;BME280;39326;42.650;23.248;2023-04-15T11:35:20;91974.03;;;16.62;31.93
53041;BME280;39326;42.650;23.248;2023-04-15T11:37:47;91980.72;;;16.57;31.04
53041;BME280;39326;42.650;23.248;2023-04-15T11:40:13;91981.66;;;16.63;30.95
53041;BME280;39326;42.650;23.248;2023-04-15T11:42:42;91974.66;;;16.66;30.70
53041;BME280;39326;42.650;23.248;2023-04-15T11:45:12;91966.72;;;16.84;30.98
53041;BME280;39326;42.650;23.248;2023-04-15T11:47:39;91975.78;;;16.90;31.59
53041;BME280;39326;42.650;23.248;2023-04-15T11:50:21;91968.03;;;16.79;30.86
53041;BME280;39326;42.650;23.248;2023-04-15T11:52:58;91954.09;;;16.59;31.26
53041;BME280;39326;42.650;23.248;2023-04-15T11:55:24;91960.69;;;16.45;31.20
53041;BME280;39326;42.650;23.248;2023-04-15T11:58:05;91968.78;;;16.33;31.16
53041;BME280;39326;42.650;23.248;2023-04-15T12:00:32;91961.44;;;16.46;32.36
53041;BME280;39326;42.650;23.248;2023-04-15T12:13:54;91969.09;;;16.35;29.61
53041;BME280;39326;42.650;23.248;2023-04-15T12:16:21;91976.34;;;16.38;30.58
53041;BME280;39326;42.650;23.248;2023-04-15T12:18:50;91967.97;;;16.70;30.52
53041;BME280;39326;42.650;23.248;2023-04-15T12:21:20;91977.09;;;16.73;31.38
53041;BME280;39326;42.650;23.248;2023-04-15T12:26:15;91983.13;;;16.90;30.67
53041;BME280;39326;42.650;23.248;2023-04-15T12:28:41;91974.00;;;16.74;28.93
53041;BME280;39326;42.650;23.248;2023-04-15T12:31:07;91970.94;;;16.85;30.31
53041;BME280;39326;42.650;23.248;2023-04-15T12:33:34;91964.09;;;16.71;30.50
53041;BME280;39326;42.650;23.248;2023-04-15T12:35:59;91970.50;;;16.39;30.76
53041;BME280;39326;42.650;23.248;2023-04-15T12:38:25;91967.72;;;16.30;31.39
53041;BME280;39326;42.650;23.248;2023-04-15T12:40:50;91956.31;;;16.39;30.96
53041;BME280;39326;42.650;23.248;2023-04-15T12:43:16;91965.34;;;16.79;30.79
53041;BME280;39326;42.650;23.248;2023-04-15T12:45:41;91966.22;;;16.76;30.24
53041;BME280;39326;42.650;23.248;2023-04-15T12:48:07;91964.88;;;16.59;29.67
53041;BME280;39326;42.650;23.248;2023-04-15T12:50:34;91972.75;;;16.53;30.04
53041;BME280;39326;42.650;23.248;2023-04-15T12:53:00;91968.63;;;16.74;29.64
53041;BME280;39326;42.650;23.248;2023-04-15T12:55:25;91978.59;;;16.87;30.42
53041;BME280;39326;42.650;23.248;2023-04-15T12:57:51;91969.25;;;17.13;30.14
53041;BME280;39326;42.650;23.248;2023-04-15T13:00:17;91966.78;;;17.28;30.00
53041;BME280;39326;42.650;23.248;2023-04-15T13:02:42;91971.38;;;17.40;29.78
53041;BME280;39326;42.650;23.248;2023-04-15T13:05:08;91983.47;;;17.36;28.92
53041;BME280;39326;42.650;23.248;2023-04-15T13:07:34;91977.28;;;17.26;29.51
53041;BME280;39326;42.650;23.248;2023-04-15T13:10:00;91974.59;;;16.91;29.61
53041;BME280;39326;42.650;23.248;2023-04-15T13:12:26;91984.22;;;16.67;30.64